sensor_id;sensor_type;location;lat;lon;timestamp;P1;durP1;ratioP1;P2;durP2;ratioP2
24090;SDS011;12272;52.426;17.100;2024-02-26T00:01:31;70.63;;;43.97;;
24090;SDS011;12272;52.426;17.100;2024-02-26T00:06:35;70.67;;;43.80;;
24090;SDS011;12272;52.426;17.100;2024-02-26T00:11:39;76.33;;;42.97;;
24090;SDS011;12272;52.426;17.100;2024-02-26T00:16:41;76.20;;;46.53;;
24090;SDS011;12272;52.426;17.100;2024-02-26T00:21:44;74.30;;;44.90;;
24090;SDS011;12272;52.426;17.100;2024-02-26T00:26:46;70.27;;;43.80;;
24090;SDS011;12272;52.426;17.100;2024-02-26T00:31:55;75.00;;;43.93;;
24090;SDS011;12272;52.426;17.100;2024-02-26T00:36:58;85.60;;;47.00;;
24090;SDS011;12272;52.426;17.100;2024-02-26T00:42:00;115.70;;;45.83;;
24090;SDS011;12272;52.426;17.100;2024-02-26T00:47:03;77.13;;;46.60;;
24090;SDS011;12272;52.426;17.100;2024-02-26T00:52:05;84.07;;;48.30;;
24090;SDS011;12272;52.426;17.100;2024-02-26T00:57:08;85.63;;;47.70;;
24090;SDS011;12272;52.426;17.100;2024-02-26T01:02:10;111.83;;;50.97;;
24090;SDS011;12272;52.426;17.100;2024-02-26T01:07:13;109.20;;;52.30;;
24090;SDS011;12272;52.426;17.100;2024-02-26T01:12:16;109.60;;;52.97;;
24090;SDS011;12272;52.426;17.100;2024-02-26T01:17:18;91.77;;;51.33;;
24090;SDS011;12272;52.426;17.100;2024-02-26T01:22:21;97.47;;;52.03;;
24090;SDS011;12272;52.426;17.100;2024-02-26T01:27:24;87.07;;;49.97;;
24090;SDS011;12272;52.426;17.100;2024-02-26T01:32:29;97.73;;;49.50;;
24090;SDS011;12272;52.426;17.100;2024-02-26T01:37:32;83.77;;;46.47;;
24090;SDS011;12272;52.426;17.100;2024-02-26T01:42:35;130.57;;;54.03;;
24090;SDS011;12272;52.426;17.100;2024-02-26T01:47:41;142.10;;;59.00;;
24090;SDS011;12272;52.426;17.100;2024-02-26T01:52:49;125.23;;;54.90;;
24090;SDS011;12272;52.426;17.100;2024-02-26T01:57:52;120.07;;;55.67;;
24090;SDS011;12272;52.426;17.100;2024-02-26T02:02:56;108.53;;;54.90;;
24090;SDS011;12272;52.426;17.100;2024-02-26T02:07:58;113.73;;;53.67;;
24090;SDS011;12272;52.426;17.100;2024-02-26T02:13:01;106.60;;;53.57;;
24090;SDS011;12272;52.426;17.100;2024-02-26T02:18:04;110.83;;;57.60;;
24090;SDS011;12272;52.426;17.100;2024-02-26T02:23:08;113.03;;;57.90;;
24090;SDS011;12272;52.426;17.100;2024-02-26T02:28:10;116.43;;;57.87;;
24090;SDS011;12272;52.426;17.100;2024-02-26T02:33:13;114.70;;;59.50;;
24090;SDS011;12272;52.426;17.100;2024-02-26T02:38:17;126.23;;;59.33;;
24090;SDS011;12272;52.426;17.100;2024-02-26T02:43:19;134.33;;;60.37;;
24090;SDS011;12272;52.426;17.100;2024-02-26T02:48:22;98.60;;;53.53;;
24090;SDS011;12272;52.426;17.100;2024-02-26T02:53:25;103.93;;;54.50;;
24090;SDS011;12272;52.426;17.100;2024-02-26T02:58:27;95.33;;;52.40;;
24090;SDS011;12272;52.426;17.100;2024-02-26T03:03:29;93.83;;;53.43;;
24090;SDS011;12272;52.426;17.100;2024-02-26T03:08:32;88.77;;;51.13;;
24090;SDS011;12272;52.426;17.100;2024-02-26T03:13:38;74.63;;;46.50;;
24090;SDS011;12272;52.426;17.100;2024-02-26T03:18:41;83.03;;;48.43;;
24090;SDS011;12272;52.426;17.100;2024-02-26T03:23:44;85.00;;;47.87;;
24090;SDS011;12272;52.426;17.100;2024-02-26T03:28:46;87.17;;;49.13;;
24090;SDS011;12272;52.426;17.100;2024-02-26T03:33:49;88.40;;;48.33;;
24090;SDS011;12272;52.426;17.100;2024-02-26T03:38:52;93.17;;;48.10;;
24090;SDS011;12272;52.426;17.100;2024-02-26T03:43:54;74.70;;;45.23;;
24090;SDS011;12272;52.426;17.100;2024-02-26T03:48:57;75.23;;;46.20;;
24090;SDS011;12272;52.426;17.100;2024-02-26T03:54:00;74.23;;;45.67;;
24090;SDS011;12272;52.426;17.100;2024-02-26T03:59:03;69.37;;;43.73;;
24090;SDS011;12272;52.426;17.100;2024-02-26T04:04:06;75.67;;;44.17;;
24090;SDS011;12272;52.426;17.100;2024-02-26T04:09:08;118.63;;;42.13;;
24090;SDS011;12272;52.426;17.100;2024-02-26T04:14:12;91.57;;;44.30;;
24090;SDS011;12272;52.426;17.100;2024-02-26T04:19:14;79.07;;;43.83;;
24090;SDS011;12272;52.426;17.100;2024-02-26T04:24:17;79.63;;;43.93;;
24090;SDS011;12272;52.426;17.100;2024-02-26T04:29:20;73.90;;;42.80;;
24090;SDS011;12272;52.426;17.100;2024-02-26T04:34:22;66.20;;;43.03;;
24090;SDS011;12272;52.426;17.100;2024-02-26T04:39:25;69.27;;;40.73;;
24090;SDS011;12272;52.426;17.100;2024-02-26T04:44:28;62.87;;;38.90;;
24090;SDS011;12272;52.426;17.100;2024-02-26T04:49:30;62.00;;;40.07;;
24090;SDS011;12272;52.426;17.100;2024-02-26T04:54:33;60.57;;;37.90;;
24090;SDS011;12272;52.426;17.100;2024-02-26T04:59:35;58.50;;;38.20;;
24090;SDS011;12272;52.426;17.100;2024-02-26T05:04:38;66.27;;;41.83;;
24090;SDS011;12272;52.426;17.100;2024-02-26T05:09:40;69.97;;;43.03;;
24090;SDS011;12272;52.426;17.100;2024-02-26T05:14:44;75.43;;;43.23;;
24090;SDS011;12272;52.426;17.100;2024-02-26T05:19:46;69.00;;;39.63;;
24090;SDS011;12272;52.426;17.100;2024-02-26T05:24:49;62.17;;;36.13;;
24090;SDS011;12272;52.426;17.100;2024-02-26T05:29:52;40.10;;;22.13;;
24090;SDS011;12272;52.426;17.100;2024-02-26T05:34:56;59.80;;;35.23;;
24090;SDS011;12272;52.426;17.100;2024-02-26T05:39:59;61.27;;;39.87;;
24090;SDS011;12272;52.426;17.100;2024-02-26T05:45:01;73.37;;;43.00;;
24090;SDS011;12272;52.426;17.100;2024-02-26T05:50:09;62.70;;;42.97;;
24090;SDS011;12272;52.426;17.100;2024-02-26T05:55:12;60.93;;;41.57;;
24090;SDS011;12272;52.426;17.100;2024-02-26T06:00:15;62.00;;;42.30;;
24090;SDS011;12272;52.426;17.100;2024-02-26T06:05:18;71.07;;;46.80;;
24090;SDS011;12272;52.426;17.100;2024-02-26T06:10:21;70.70;;;47.37;;
24090;SDS011;12272;52.426;17.100;2024-02-26T06:15:23;62.77;;;39.60;;
24090;SDS011;12272;52.426;17.100;2024-02-26T06:20:26;64.90;;;38.47;;
24090;SDS011;12272;52.426;17.100;2024-02-26T06:25:29;62.60;;;37.90;;
24090;SDS011;12272;52.426;17.100;2024-02-26T06:30:32;63.27;;;38.53;;
24090;SDS011;12272;52.426;17.100;2024-02-26T06:35:34;66.17;;;41.83;;
24090;SDS011;12272;52.426;17.100;2024-02-26T06:40:37;57.13;;;38.07;;
24090;SDS011;12272;52.426;17.100;2024-02-26T06:45:40;65.53;;;39.50;;
24090;SDS011;12272;52.426;17.100;2024-02-26T06:50:42;48.27;;;30.43;;
24090;SDS011;12272;52.426;17.100;2024-02-26T06:55:45;57.70;;;36.03;;
24090;SDS011;12272;52.426;17.100;2024-02-26T07:00:47;58.10;;;37.77;;
24090;SDS011;12272;52.426;17.100;2024-02-26T07:05:50;59.83;;;37.37;;
24090;SDS011;12272;52.426;17.100;2024-02-26T07:10:53;56.73;;;38.27;;
24090;SDS011;12272;52.426;17.100;2024-02-26T07:15:56;66.17;;;40.17;;
24090;SDS011;12272;52.426;17.100;2024-02-26T07:21:01;58.17;;;38.27;;
24090;SDS011;12272;52.426;17.100;2024-02-26T07:26:04;58.67;;;37.50;;
24090;SDS011;12272;52.426;17.100;2024-02-26T07:31:07;56.93;;;36.10;;
24090;SDS011;12272;52.426;17.100;2024-02-26T07:36:10;59.27;;;36.37;;
24090;SDS011;12272;52.426;17.100;2024-02-26T07:41:13;55.90;;;35.57;;
24090;SDS011;12272;52.426;17.100;2024-02-26T07:46:15;63.60;;;38.67;;
24090;SDS011;12272;52.426;17.100;2024-02-26T07:51:18;61.50;;;38.57;;
24090;SDS011;12272;52.426;17.100;2024-02-26T07:56:21;58.03;;;35.80;;
24090;SDS011;12272;52.426;17.100;2024-02-26T08:01:23;57.93;;;35.83;;
24090;SDS011;12272;52.426;17.100;2024-02-26T08:06:27;60.67;;;34.17;;
24090;SDS011;12272;52.426;17.100;2024-02-26T08:11:30;58.90;;;38.53;;
24090;SDS011;12272;52.426;17.100;2024-02-26T08:16:33;52.63;;;32.03;;
24090;SDS011;12272;52.426;17.100;2024-02-26T08:21:38;58.60;;;33.67;;
24090;SDS011;12272;52.426;17.100;2024-02-26T08:26:40;57.40;;;33.73;;
24090;SDS011;12272;52.426;17.100;2024-02-26T08:31:43;56.00;;;33.73;;
24090;SDS011;12272;52.426;17.100;2024-02-26T08:36:45;54.43;;;33.10;;
24090;SDS011;12272;52.426;17.100;2024-02-26T08:41:48;44.43;;;28.60;;
24090;SDS011;12272;52.426;17.100;2024-02-26T08:46:50;49.37;;;31.40;;
24090;SDS011;12272;52.426;17.100;2024-02-26T08:51:53;46.50;;;32.10;;
24090;SDS011;12272;52.426;17.100;2024-02-26T08:56:55;46.23;;;28.50;;
24090;SDS011;12272;52.426;17.100;2024-02-26T09:01:58;40.43;;;27.10;;
24090;SDS011;12272;52.426;17.100;2024-02-26T09:07:01;55.33;;;28.90;;
24090;SDS011;12272;52.426;17.100;2024-02-26T09:12:04;37.47;;;26.27;;
24090;SDS011;12272;52.426;17.100;2024-02-26T09:17:08;40.43;;;27.77;;
24090;SDS011;12272;52.426;17.100;2024-02-26T09:22:11;41.00;;;27.13;;
24090;SDS011;12272;52.426;17.100;2024-02-26T09:27:18;41.83;;;23.87;;
24090;SDS011;12272;52.426;17.100;2024-02-26T09:32:21;38.17;;;23.47;;
24090;SDS011;12272;52.426;17.100;2024-02-26T09:37:23;36.00;;;21.90;;
24090;SDS011;12272;52.426;17.100;2024-02-26T09:42:26;42.83;;;21.80;;
24090;SDS011;12272;52.426;17.100;2024-02-26T09:47:30;29.90;;;19.20;;
24090;SDS011;12272;52.426;17.100;2024-02-26T09:52:34;38.93;;;22.77;;
24090;SDS011;12272;52.426;17.100;2024-02-26T09:57:42;33.30;;;22.53;;
24090;SDS011;12272;52.426;17.100;2024-02-26T10:02:47;36.37;;;21.60;;
24090;SDS011;12272;52.426;17.100;2024-02-26T10:07:51;32.23;;;20.27;;
24090;SDS011;12272;52.426;17.100;2024-02-26T10:12:54;32.03;;;19.80;;
24090;SDS011;12272;52.426;17.100;2024-02-26T10:17:57;33.57;;;21.57;;
24090;SDS011;12272;52.426;17.100;2024-02-26T10:23:03;30.63;;;19.33;;
24090;SDS011;12272;52.426;17.100;2024-02-26T10:28:06;28.77;;;17.83;;
24090;SDS011;12272;52.426;17.100;2024-02-26T10:33:09;28.43;;;16.63;;
24090;SDS011;12272;52.426;17.100;2024-02-26T10:38:12;22.57;;;15.57;;
24090;SDS011;12272;52.426;17.100;2024-02-26T10:43:15;25.03;;;16.67;;
24090;SDS011;12272;52.426;17.100;2024-02-26T10:48:18;24.77;;;16.37;;
24090;SDS011;12272;52.426;17.100;2024-02-26T10:53:21;24.37;;;15.53;;
24090;SDS011;12272;52.426;17.100;2024-02-26T10:58:25;22.10;;;14.13;;
24090;SDS011;12272;52.426;17.100;2024-02-26T11:03:28;21.97;;;14.57;;
24090;SDS011;12272;52.426;17.100;2024-02-26T11:08:34;25.50;;;16.13;;
24090;SDS011;12272;52.426;17.100;2024-02-26T11:13:37;22.20;;;14.70;;
24090;SDS011;12272;52.426;17.100;2024-02-26T11:18:46;20.97;;;14.67;;
24090;SDS011;12272;52.426;17.100;2024-02-26T11:23:54;29.10;;;15.70;;
24090;SDS011;12272;52.426;17.100;2024-02-26T11:28:56;19.80;;;13.43;;
24090;SDS011;12272;52.426;17.100;2024-02-26T11:33:59;18.23;;;13.57;;
24090;SDS011;12272;52.426;17.100;2024-02-26T11:39:03;19.43;;;11.87;;
24090;SDS011;12272;52.426;17.100;2024-02-26T11:44:06;22.33;;;13.60;;
24090;SDS011;12272;52.426;17.100;2024-02-26T11:59:49;19.93;;;13.43;;
24090;SDS011;12272;52.426;17.100;2024-02-26T12:04:53;18.47;;;12.97;;
24090;SDS011;12272;52.426;17.100;2024-02-26T12:10:12;21.13;;;14.43;;
24090;SDS011;12272;52.426;17.100;2024-02-26T12:15:38;16.60;;;12.17;;
24090;SDS011;12272;52.426;17.100;2024-02-26T12:20:43;18.43;;;12.43;;
24090;SDS011;12272;52.426;17.100;2024-02-26T12:25:46;18.40;;;13.70;;
24090;SDS011;12272;52.426;17.100;2024-02-26T12:30:50;18.57;;;14.33;;
24090;SDS011;12272;52.426;17.100;2024-02-26T12:35:53;22.53;;;15.17;;
24090;SDS011;12272;52.426;17.100;2024-02-26T12:40:55;22.37;;;13.30;;
24090;SDS011;12272;52.426;17.100;2024-02-26T12:45:58;20.77;;;15.20;;
24090;SDS011;12272;52.426;17.100;2024-02-26T12:51:05;22.43;;;13.70;;
24090;SDS011;12272;52.426;17.100;2024-02-26T12:56:08;21.63;;;14.70;;
24090;SDS011;12272;52.426;17.100;2024-02-26T13:01:15;22.70;;;14.87;;
24090;SDS011;12272;52.426;17.100;2024-02-26T13:06:20;22.13;;;14.23;;
24090;SDS011;12272;52.426;17.100;2024-02-26T13:11:23;19.83;;;13.03;;
24090;SDS011;12272;52.426;17.100;2024-02-26T13:16:26;22.53;;;14.70;;
24090;SDS011;12272;52.426;17.100;2024-02-26T13:21:29;19.93;;;12.27;;
24090;SDS011;12272;52.426;17.100;2024-02-26T13:26:32;20.33;;;15.23;;
24090;SDS011;12272;52.426;17.100;2024-02-26T13:31:40;24.03;;;13.90;;
24090;SDS011;12272;52.426;17.100;2024-02-26T13:36:46;20.77;;;12.43;;
24090;SDS011;12272;52.426;17.100;2024-02-26T13:41:49;18.57;;;12.73;;
24090;SDS011;12272;52.426;17.100;2024-02-26T13:46:52;20.67;;;13.00;;
24090;SDS011;12272;52.426;17.100;2024-02-26T13:51:55;20.37;;;13.17;;
24090;SDS011;12272;52.426;17.100;2024-02-26T13:56:58;18.63;;;11.90;;
24090;SDS011;12272;52.426;17.100;2024-02-26T14:02:00;17.47;;;11.63;;
24090;SDS011;12272;52.426;17.100;2024-02-26T14:07:03;20.20;;;13.53;;
24090;SDS011;12272;52.426;17.100;2024-02-26T14:12:06;16.67;;;10.23;;
24090;SDS011;12272;52.426;17.100;2024-02-26T14:17:08;17.67;;;11.60;;
24090;SDS011;12272;52.426;17.100;2024-02-26T14:22:12;17.10;;;11.90;;
24090;SDS011;12272;52.426;17.100;2024-02-26T14:27:14;18.43;;;11.57;;
24090;SDS011;12272;52.426;17.100;2024-02-26T14:32:18;19.63;;;15.07;;
24090;SDS011;12272;52.426;17.100;2024-02-26T14:37:20;26.83;;;20.00;;
24090;SDS011;12272;52.426;17.100;2024-02-26T14:42:23;22.77;;;18.53;;
24090;SDS011;12272;52.426;17.100;2024-02-26T14:47:26;17.33;;;12.53;;
24090;SDS011;12272;52.426;17.100;2024-02-26T14:52:29;21.57;;;11.43;;
24090;SDS011;12272;52.426;17.100;2024-02-26T14:57:31;16.33;;;11.50;;
24090;SDS011;12272;52.426;17.100;2024-02-26T15:02:34;18.27;;;11.77;;
24090;SDS011;12272;52.426;17.100;2024-02-26T15:07:37;15.80;;;10.20;;
24090;SDS011;12272;52.426;17.100;2024-02-26T15:12:42;17.37;;;11.47;;
24090;SDS011;12272;52.426;17.100;2024-02-26T15:17:45;17.60;;;11.23;;
24090;SDS011;12272;52.426;17.100;2024-02-26T15:22:48;14.90;;;11.10;;
24090;SDS011;12272;52.426;17.100;2024-02-26T15:27:50;13.73;;;9.93;;
24090;SDS011;12272;52.426;17.100;2024-02-26T15:32:53;16.63;;;9.90;;
24090;SDS011;12272;52.426;17.100;2024-02-26T15:37:56;15.17;;;9.23;;
24090;SDS011;12272;52.426;17.100;2024-02-26T15:42:59;21.00;;;11.23;;
24090;SDS011;12272;52.426;17.100;2024-02-26T15:48:02;16.57;;;11.20;;
24090;SDS011;12272;52.426;17.100;2024-02-26T15:53:05;19.50;;;11.30;;
24090;SDS011;12272;52.426;17.100;2024-02-26T15:58:08;16.50;;;11.00;;
24090;SDS011;12272;52.426;17.100;2024-02-26T16:03:11;24.10;;;14.40;;
24090;SDS011;12272;52.426;17.100;2024-02-26T16:08:18;21.07;;;13.87;;
24090;SDS011;12272;52.426;17.100;2024-02-26T16:13:23;24.63;;;13.50;;
24090;SDS011;12272;52.426;17.100;2024-02-26T16:18:25;24.97;;;14.33;;
24090;SDS011;12272;52.426;17.100;2024-02-26T16:23:28;39.97;;;23.07;;
24090;SDS011;12272;52.426;17.100;2024-02-26T16:28:31;32.23;;;19.73;;
24090;SDS011;12272;52.426;17.100;2024-02-26T16:33:33;32.10;;;18.20;;
24090;SDS011;12272;52.426;17.100;2024-02-26T16:38:36;37.60;;;22.90;;
24090;SDS011;12272;52.426;17.100;2024-02-26T16:43:39;49.27;;;29.87;;
24090;SDS011;12272;52.426;17.100;2024-02-26T16:48:42;42.77;;;23.27;;
24090;SDS011;12272;52.426;17.100;2024-02-26T16:53:45;33.00;;;18.73;;
24090;SDS011;12272;52.426;17.100;2024-02-26T16:58:48;37.63;;;22.53;;
24090;SDS011;12272;52.426;17.100;2024-02-26T17:03:50;43.23;;;26.00;;
24090;SDS011;12272;52.426;17.100;2024-02-26T17:08:53;47.07;;;27.80;;
24090;SDS011;12272;52.426;17.100;2024-02-26T17:13:56;42.67;;;29.20;;
24090;SDS011;12272;52.426;17.100;2024-02-26T17:18:58;45.40;;;27.87;;
24090;SDS011;12272;52.426;17.100;2024-02-26T17:24:01;50.87;;;26.30;;
24090;SDS011;12272;52.426;17.100;2024-02-26T17:29:04;44.63;;;27.97;;
24090;SDS011;12272;52.426;17.100;2024-02-26T17:34:06;49.07;;;31.13;;
24090;SDS011;12272;52.426;17.100;2024-02-26T17:39:10;32.63;;;21.77;;
24090;SDS011;12272;52.426;17.100;2024-02-26T17:44:15;44.10;;;25.63;;
24090;SDS011;12272;52.426;17.100;2024-02-26T17:49:20;55.33;;;35.70;;
24090;SDS011;12272;52.426;17.100;2024-02-26T17:54:26;47.20;;;29.80;;
24090;SDS011;12272;52.426;17.100;2024-02-26T17:59:31;88.63;;;59.30;;
24090;SDS011;12272;52.426;17.100;2024-02-26T18:04:33;72.07;;;37.70;;
24090;SDS011;12272;52.426;17.100;2024-02-26T18:09:37;52.90;;;29.17;;
24090;SDS011;12272;52.426;17.100;2024-02-26T18:14:40;30.90;;;21.37;;
24090;SDS011;12272;52.426;17.100;2024-02-26T18:19:43;239.33;;;84.00;;
24090;SDS011;12272;52.426;17.100;2024-02-26T18:24:45;241.90;;;79.97;;
24090;SDS011;12272;52.426;17.100;2024-02-26T18:29:48;257.93;;;86.70;;
24090;SDS011;12272;52.426;17.100;2024-02-26T18:34:50;226.43;;;80.27;;
24090;SDS011;12272;52.426;17.100;2024-02-26T18:39:53;109.80;;;43.60;;
24090;SDS011;12272;52.426;17.100;2024-02-26T18:44:56;61.93;;;28.43;;
24090;SDS011;12272;52.426;17.100;2024-02-26T18:50:00;42.37;;;23.30;;
24090;SDS011;12272;52.426;17.100;2024-02-26T18:55:03;39.37;;;22.77;;
24090;SDS011;12272;52.426;17.100;2024-02-26T19:00:07;38.13;;;23.10;;
24090;SDS011;12272;52.426;17.100;2024-02-26T19:05:11;35.30;;;22.77;;
24090;SDS011;12272;52.426;17.100;2024-02-26T19:10:13;40.17;;;23.37;;
24090;SDS011;12272;52.426;17.100;2024-02-26T19:15:16;36.03;;;22.03;;
24090;SDS011;12272;52.426;17.100;2024-02-26T19:20:22;32.93;;;22.77;;
24090;SDS011;12272;52.426;17.100;2024-02-26T19:25:24;34.37;;;21.03;;
24090;SDS011;12272;52.426;17.100;2024-02-26T19:30:27;35.77;;;21.37;;
24090;SDS011;12272;52.426;17.100;2024-02-26T19:35:30;34.57;;;21.73;;
24090;SDS011;12272;52.426;17.100;2024-02-26T19:40:32;53.43;;;28.23;;
24090;SDS011;12272;52.426;17.100;2024-02-26T19:45:35;36.47;;;22.87;;
24090;SDS011;12272;52.426;17.100;2024-02-26T19:50:39;54.97;;;28.10;;
24090;SDS011;12272;52.426;17.100;2024-02-26T19:55:42;48.53;;;26.43;;
24090;SDS011;12272;52.426;17.100;2024-02-26T20:00:45;41.73;;;23.93;;
24090;SDS011;12272;52.426;17.100;2024-02-26T20:05:48;45.23;;;26.30;;
24090;SDS011;12272;52.426;17.100;2024-02-26T20:10:51;47.33;;;26.20;;
24090;SDS011;12272;52.426;17.100;2024-02-26T20:15:53;92.93;;;39.13;;
24090;SDS011;12272;52.426;17.100;2024-02-26T20:20:56;65.37;;;32.17;;
24090;SDS011;12272;52.426;17.100;2024-02-26T20:25:59;46.33;;;26.07;;
24090;SDS011;12272;52.426;17.100;2024-02-26T20:31:03;35.93;;;24.57;;
24090;SDS011;12272;52.426;17.100;2024-02-26T20:36:06;41.10;;;24.07;;
24090;SDS011;12272;52.426;17.100;2024-02-26T20:41:09;34.97;;;21.90;;
24090;SDS011;12272;52.426;17.100;2024-02-26T20:46:11;32.97;;;21.90;;
24090;SDS011;12272;52.426;17.100;2024-02-26T20:51:14;37.00;;;23.00;;
24090;SDS011;12272;52.426;17.100;2024-02-26T20:56:16;38.80;;;24.13;;
24090;SDS011;12272;52.426;17.100;2024-02-26T21:01:19;36.50;;;22.57;;
24090;SDS011;12272;52.426;17.100;2024-02-26T21:06:21;41.73;;;25.30;;
24090;SDS011;12272;52.426;17.100;2024-02-26T21:11:24;35.97;;;22.47;;
24090;SDS011;12272;52.426;17.100;2024-02-26T21:16:27;33.90;;;22.10;;
24090;SDS011;12272;52.426;17.100;2024-02-26T21:21:30;38.30;;;22.87;;
24090;SDS011;12272;52.426;17.100;2024-02-26T21:26:35;35.67;;;21.83;;
24090;SDS011;12272;52.426;17.100;2024-02-26T21:31:37;35.00;;;22.33;;
24090;SDS011;12272;52.426;17.100;2024-02-26T21:36:41;36.27;;;21.57;;
24090;SDS011;12272;52.426;17.100;2024-02-26T21:41:44;37.33;;;23.80;;
24090;SDS011;12272;52.426;17.100;2024-02-26T21:46:46;36.67;;;23.57;;
24090;SDS011;12272;52.426;17.100;2024-02-26T21:51:50;36.97;;;23.60;;
24090;SDS011;12272;52.426;17.100;2024-02-26T21:56:53;42.47;;;26.17;;
24090;SDS011;12272;52.426;17.100;2024-02-26T22:01:56;38.00;;;25.03;;
24090;SDS011;12272;52.426;17.100;2024-02-26T22:06:58;37.57;;;25.87;;
24090;SDS011;12272;52.426;17.100;2024-02-26T22:12:01;37.13;;;24.43;;
24090;SDS011;12272;52.426;17.100;2024-02-26T22:17:03;33.13;;;22.23;;
24090;SDS011;12272;52.426;17.100;2024-02-26T22:22:06;40.10;;;26.83;;
24090;SDS011;12272;52.426;17.100;2024-02-26T22:27:08;41.97;;;24.77;;
24090;SDS011;12272;52.426;17.100;2024-02-26T22:32:11;40.63;;;24.83;;
24090;SDS011;12272;52.426;17.100;2024-02-26T22:37:14;40.80;;;24.70;;
24090;SDS011;12272;52.426;17.100;2024-02-26T22:42:17;39.33;;;26.73;;
24090;SDS011;12272;52.426;17.100;2024-02-26T22:47:20;37.00;;;25.37;;
24090;SDS011;12272;52.426;17.100;2024-02-26T22:52:22;38.63;;;24.63;;
24090;SDS011;12272;52.426;17.100;2024-02-26T22:57:25;43.90;;;25.50;;
24090;SDS011;12272;52.426;17.100;2024-02-26T23:02:27;43.13;;;26.50;;
24090;SDS011;12272;52.426;17.100;2024-02-26T23:07:30;40.70;;;25.07;;
24090;SDS011;12272;52.426;17.100;2024-02-26T23:12:33;41.97;;;26.40;;
24090;SDS011;12272;52.426;17.100;2024-02-26T23:17:35;39.90;;;26.13;;
24090;SDS011;12272;52.426;17.100;2024-02-26T23:22:42;40.13;;;26.17;;
24090;SDS011;12272;52.426;17.100;2024-02-26T23:27:47;40.57;;;26.63;;
24090;SDS011;12272;52.426;17.100;2024-02-26T23:32:50;38.53;;;25.37;;
24090;SDS011;12272;52.426;17.100;2024-02-26T23:37:53;40.20;;;26.50;;
24090;SDS011;12272;52.426;17.100;2024-02-26T23:42:56;43.40;;;26.77;;
24090;SDS011;12272;52.426;17.100;2024-02-26T23:47:58;43.27;;;25.60;;
24090;SDS011;12272;52.426;17.100;2024-02-26T23:53:01;44.73;;;25.80;;
24090;SDS011;12272;52.426;17.100;2024-02-26T23:58:06;39.13;;;26.13;;
